createdAt,value
2018-09-14T00:03:01.944Z,10.77
2018-09-14T00:07:05.299Z,63.30
2018-09-14T00:11:08.650Z,13.47
2018-09-14T00:15:11.976Z,64.70
2018-09-14T00:19:15.339Z,36.13
2018-09-14T00:23:18.672Z,44.10
2018-09-14T00:27:22.054Z,19.47
2018-09-14T00:31:25.447Z,27.07
2018-09-14T00:35:28.881Z,14.77
2018-09-14T00:39:32.211Z,21.40
2018-09-14T00:43:35.547Z,23.97
2018-09-14T00:47:38.893Z,38.07
2018-09-14T00:51:42.304Z,57.70
2018-09-14T00:55:45.655Z,202.47
2018-09-14T00:59:49.025Z,192.60
2018-09-14T01:03:52.331Z,75.43
2018-09-14T01:07:55.657Z,167.50
2018-09-14T01:11:59.563Z,241.00
2018-09-14T01:16:02.918Z,114.17
2018-09-14T01:20:06.299Z,30.13
2018-09-14T01:24:09.731Z,221.60
2018-09-14T01:28:13.054Z,15.80
2018-09-14T01:32:16.360Z,29.97
2018-09-14T01:36:20.859Z,72.57
2018-09-14T01:40:24.197Z,44.43
2018-09-14T01:44:34.645Z,9.03
2018-09-14T01:48:41.503Z,120.53
2018-09-14T01:52:45.389Z,158.33
2018-09-14T01:56:49.001Z,56.60
2018-09-14T02:00:52.485Z,48.70
2018-09-14T02:04:55.858Z,18.60
2018-09-14T02:08:59.207Z,23.30
2018-09-14T02:13:02.546Z,26.73
2018-09-14T02:17:05.908Z,13.37
2018-09-14T02:21:09.343Z,14.57
2018-09-14T02:25:12.764Z,11.77
2018-09-14T02:29:16.082Z,11.07
2018-09-14T02:33:19.401Z,29.70
2018-09-14T02:37:22.723Z,16.13
2018-09-14T02:41:26.043Z,29.03
2018-09-14T02:45:29.371Z,20.97
2018-09-14T02:49:32.815Z,20.90
2018-09-14T02:53:36.143Z,14.13
2018-09-14T02:57:39.540Z,22.97
2018-09-14T03:01:42.882Z,69.50
2018-09-14T03:05:46.211Z,58.67
2018-09-14T03:09:49.551Z,31.43
2018-09-14T03:13:52.870Z,43.07
2018-09-14T03:17:56.207Z,36.30
2018-09-14T03:21:59.587Z,87.67
2018-09-14T03:26:02.985Z,166.80
2018-09-14T03:30:06.335Z,117.97
2018-09-14T03:34:09.663Z,99.83
2018-09-14T03:38:13.047Z,110.37
2018-09-14T03:42:16.466Z,34.47
2018-09-14T03:46:20.864Z,187.53
2018-09-14T03:50:24.220Z,67.07
2018-09-14T03:54:27.608Z,57.30
2018-09-14T03:58:30.943Z,34.80
2018-09-14T04:02:34.319Z,34.83
2018-09-14T04:06:37.683Z,15.60
2018-09-14T04:10:41.080Z,16.40
2018-09-14T04:14:44.416Z,11.13
2018-09-14T04:18:51.283Z,30.50
2018-09-14T04:22:54.669Z,47.83
2018-09-14T04:26:58.024Z,35.17
2018-09-14T04:31:01.587Z,37.13
2018-09-14T04:35:04.959Z,16.57
2018-09-14T04:39:09.404Z,30.03
2018-09-14T04:43:12.850Z,44.10
2018-09-14T04:47:16.227Z,28.83
2018-09-14T04:51:19.663Z,65.47
2018-09-14T04:55:23.654Z,89.20
2018-09-14T04:59:27.794Z,223.20
2018-09-14T05:03:31.737Z,96.90
2018-09-14T05:07:35.164Z,197.50
2018-09-14T05:11:38.500Z,159.93
2018-09-14T05:15:41.843Z,126.10
2018-09-14T05:19:45.180Z,49.70
2018-09-14T05:23:48.536Z,124.50
2018-09-14T05:27:51.894Z,48.73
2018-09-14T05:31:55.238Z,44.80
2018-09-14T05:35:58.577Z,42.40
2018-09-14T05:40:01.995Z,26.83
2018-09-14T05:44:05.271Z,115.43
2018-09-14T05:48:08.604Z,73.07
2018-09-14T05:52:12.817Z,108.10
2018-09-14T05:56:16.143Z,55.50
2018-09-14T06:00:19.539Z,180.97
2018-09-14T06:04:22.884Z,59.37
2018-09-14T06:08:26.232Z,163.17
2018-09-14T06:12:29.594Z,201.80
2018-09-14T06:16:32.910Z,112.63
2018-09-14T06:20:36.315Z,117.47
2018-09-14T06:24:39.649Z,167.07
2018-09-14T06:28:43.017Z,204.20
2018-09-14T06:32:46.392Z,137.17
2018-09-14T06:36:49.741Z,123.63
2018-09-14T06:40:53.234Z,143.43
2018-09-14T06:44:56.615Z,265.27
2018-09-14T06:48:59.949Z,112.30
2018-09-14T06:53:03.292Z,124.10
2018-09-14T06:57:06.631Z,95.17
2018-09-14T07:01:09.987Z,125.53
2018-09-14T07:05:13.307Z,85.40
2018-09-14T07:09:16.652Z,77.23
2018-09-14T07:13:20.128Z,62.57
2018-09-14T07:17:23.380Z,94.10
2018-09-14T07:21:26.821Z,66.47
2018-09-14T07:25:30.167Z,58.30
2018-09-14T07:29:33.578Z,45.67
2018-09-14T07:33:36.915Z,48.90
2018-09-14T07:37:40.291Z,46.67
2018-09-14T07:41:43.638Z,58.77
2018-09-14T07:45:47.006Z,50.80
2018-09-14T07:49:50.387Z,49.23
2018-09-14T07:53:53.818Z,49.47
2018-09-14T07:57:57.157Z,56.70
2018-09-14T08:02:00.525Z,41.47
2018-09-14T08:06:03.894Z,41.97
2018-09-14T08:10:07.248Z,44.00
2018-09-14T08:14:11.227Z,44.17
2018-09-14T08:18:14.549Z,40.87
2018-09-14T08:22:17.874Z,46.13
2018-09-14T08:26:21.228Z,43.80
2018-09-14T08:30:24.623Z,39.37
2018-09-14T08:34:27.972Z,39.60
2018-09-14T08:38:31.448Z,40.33
2018-09-14T08:42:35.044Z,42.90
2018-09-14T08:46:38.417Z,44.17
2018-09-14T08:50:41.759Z,40.00
2018-09-14T08:54:45.113Z,43.60
2018-09-14T08:58:48.463Z,38.93
2018-09-14T09:02:52.408Z,38.93
2018-09-14T09:06:55.769Z,34.80
2018-09-14T09:10:59.147Z,30.33
2018-09-14T09:15:02.525Z,26.97
2018-09-14T09:19:05.909Z,28.77
2018-09-14T09:23:09.271Z,24.07
2018-09-14T09:27:12.603Z,24.20
2018-09-14T09:31:16.021Z,21.27
2018-09-14T09:35:19.143Z,22.70
2018-09-14T09:39:22.490Z,22.43
2018-09-14T09:43:25.941Z,18.50
2018-09-14T09:47:29.217Z,20.20
2018-09-14T09:51:32.626Z,16.30
2018-09-14T09:55:36.679Z,19.50
2018-09-14T09:59:40.043Z,19.67
2018-09-14T10:03:44.035Z,19.03
2018-09-14T10:07:47.355Z,16.97
2018-09-14T10:11:50.762Z,16.17
2018-09-14T10:15:54.124Z,22.50
2018-09-14T10:19:57.455Z,17.17
2018-09-14T10:24:00.795Z,21.23
2018-09-14T10:28:04.157Z,15.90
2018-09-14T10:32:07.541Z,16.13
2018-09-14T10:36:10.915Z,13.53
2018-09-14T10:40:14.287Z,19.80
2018-09-14T10:44:17.627Z,19.07
2018-09-14T10:48:20.967Z,18.03
2018-09-14T10:52:24.309Z,17.07
2018-09-14T10:56:27.652Z,19.90
2018-09-14T11:00:31.040Z,18.63
2018-09-14T11:04:34.416Z,20.53
2018-09-14T11:08:37.779Z,16.77
2018-09-14T11:12:41.303Z,21.13
2018-09-14T11:16:44.563Z,17.97
2018-09-14T11:20:47.944Z,14.33
2018-09-14T11:24:51.381Z,15.93
2018-09-14T11:28:54.651Z,12.37
2018-09-14T11:32:57.987Z,13.50
2018-09-14T11:37:01.316Z,15.17
2018-09-14T11:41:04.659Z,12.77
2018-09-14T11:45:08.142Z,14.90
2018-09-14T11:49:11.620Z,7.00
2018-09-14T11:53:14.983Z,9.23
2018-09-14T11:57:18.425Z,6.47
2018-09-14T12:01:22.064Z,7.33
2018-09-14T12:05:25.402Z,8.47
2018-09-14T12:09:28.771Z,6.33
2018-09-14T12:13:32.146Z,9.33
2018-09-14T12:17:35.519Z,14.10
2018-09-14T12:21:38.838Z,9.50
2018-09-14T12:25:42.171Z,13.70
2018-09-14T12:29:45.523Z,6.27
2018-09-14T12:33:48.968Z,10.80
2018-09-14T12:37:52.331Z,5.87
2018-09-14T12:41:55.663Z,11.93
2018-09-14T12:45:59.023Z,9.23
2018-09-14T12:50:02.360Z,5.53
2018-09-14T12:54:05.703Z,7.80
2018-09-14T12:58:09.031Z,6.53
2018-09-14T13:02:12.354Z,7.67
2018-09-14T13:06:15.695Z,11.00
2018-09-14T13:10:19.119Z,11.37
2018-09-14T13:14:23.755Z,15.30
2018-09-14T13:18:27.190Z,9.37
2018-09-14T13:22:30.523Z,10.77
2018-09-14T13:26:33.887Z,12.27
2018-09-14T13:30:37.294Z,12.30
2018-09-14T13:34:40.624Z,10.57
2018-09-14T13:38:43.963Z,16.73
2018-09-14T13:42:47.308Z,11.93
2018-09-14T13:46:50.640Z,12.17
2018-09-14T13:50:54.023Z,11.17
2018-09-14T13:54:57.347Z,11.43
2018-09-14T13:59:00.719Z,11.00
2018-09-14T14:03:04.347Z,11.10
2018-09-14T14:07:07.704Z,11.07
2018-09-14T14:11:11.056Z,9.80
2018-09-14T14:15:14.519Z,10.73
2018-09-14T14:19:17.859Z,10.40
2018-09-14T14:23:21.235Z,10.23
2018-09-14T14:27:24.553Z,12.20
2018-09-14T14:31:28.403Z,8.67
2018-09-14T14:35:31.755Z,10.77
2018-09-14T14:39:35.108Z,11.07
2018-09-14T14:43:38.415Z,11.93
2018-09-14T14:47:41.795Z,14.50
2018-09-14T14:51:46.746Z,12.37
2018-09-14T14:55:50.168Z,11.83
2018-09-14T14:59:53.543Z,11.57
2018-09-14T15:03:56.865Z,11.47
2018-09-14T15:08:07.182Z,10.67
2018-09-14T15:12:10.648Z,11.23
2018-09-14T15:16:14.008Z,8.23
2018-09-14T15:20:17.346Z,13.67
2018-09-14T15:24:20.740Z,12.23
2018-09-14T15:28:24.084Z,18.97
2018-09-14T15:32:27.448Z,10.77
2018-09-14T15:36:30.929Z,10.27
2018-09-14T15:40:34.272Z,14.03
2018-09-14T15:44:37.615Z,12.80
2018-09-14T15:48:40.972Z,15.17
2018-09-14T15:52:44.339Z,13.30
2018-09-14T15:56:47.727Z,9.53
2018-09-14T16:00:51.179Z,48.50
2018-09-14T16:04:54.491Z,25.67
2018-09-14T16:08:57.835Z,26.83
2018-09-14T16:13:01.399Z,15.00
2018-09-14T16:17:04.797Z,54.80
2018-09-14T16:21:08.190Z,71.43
2018-09-14T16:25:11.559Z,70.63
2018-09-14T16:29:16.341Z,65.27
2018-09-14T16:33:19.767Z,43.30
2018-09-14T16:37:23.202Z,15.33
2018-09-14T16:41:26.558Z,14.00
2018-09-14T16:45:29.942Z,14.43
2018-09-14T16:49:33.368Z,12.13
2018-09-14T16:53:36.760Z,23.07
2018-09-14T16:57:40.823Z,12.37
2018-09-14T17:01:44.401Z,18.43
2018-09-14T17:05:47.788Z,14.07
2018-09-14T17:09:51.190Z,15.30
2018-09-14T17:13:54.596Z,24.33
2018-09-14T17:17:59.759Z,12.57
2018-09-14T17:22:03.149Z,14.37
2018-09-14T17:26:06.537Z,13.47
2018-09-14T17:30:12.974Z,25.50
2018-09-14T17:34:16.562Z,13.13
2018-09-14T17:38:20.181Z,7.87
2018-09-14T17:42:23.511Z,10.17
2018-09-14T17:46:26.849Z,9.33
2018-09-14T17:50:30.287Z,8.20
2018-09-14T17:54:33.787Z,11.07
2018-09-14T17:58:37.387Z,9.37
2018-09-14T18:02:40.831Z,11.27
2018-09-14T18:06:44.155Z,14.37
2018-09-14T18:10:47.619Z,12.63
2018-09-14T18:14:51.105Z,14.67
2018-09-14T18:18:54.455Z,14.07
2018-09-14T18:22:57.813Z,16.70
2018-09-14T18:27:01.183Z,13.03
2018-09-14T18:31:04.631Z,10.93
2018-09-14T18:35:07.978Z,12.10
2018-09-14T18:39:12.956Z,12.07
2018-09-14T18:43:16.319Z,12.93
2018-09-14T18:47:19.699Z,15.17
2018-09-14T18:51:23.304Z,10.50
2018-09-14T18:55:26.891Z,13.43
2018-09-14T18:59:30.494Z,12.97
2018-09-14T19:03:34.153Z,10.63
2018-09-14T19:07:37.801Z,10.87
2018-09-14T19:11:41.421Z,10.30
2018-09-14T19:15:44.820Z,11.40
2018-09-14T19:19:48.414Z,13.43
2018-09-14T19:23:52.030Z,12.83
2018-09-14T19:27:55.633Z,11.10
2018-09-14T19:31:59.246Z,12.40
2018-09-14T19:36:02.668Z,16.83
2018-09-14T19:40:06.333Z,13.90
2018-09-14T19:44:10.335Z,13.80
2018-09-14T19:48:13.675Z,12.83
2018-09-14T19:52:17.050Z,13.33
2018-09-14T19:56:20.412Z,54.53
2018-09-14T20:00:23.818Z,30.17
2018-09-14T20:04:27.200Z,133.93
2018-09-14T20:08:30.640Z,169.07
2018-09-14T20:12:34.016Z,152.17
2018-09-14T20:16:37.423Z,157.63
2018-09-14T20:20:40.939Z,70.37
2018-09-14T20:24:44.613Z,97.37
2018-09-14T20:28:48.385Z,85.03
2018-09-14T20:32:53.284Z,50.73
2018-09-14T20:36:57.061Z,70.07
2018-09-14T20:41:00.871Z,55.97
2018-09-14T20:45:04.668Z,111.23
2018-09-14T20:49:10.317Z,44.60
2018-09-14T20:53:13.788Z,72.90
2018-09-14T20:57:17.319Z,156.53
2018-09-14T21:01:20.740Z,71.57
2018-09-14T21:05:24.095Z,45.93
2018-09-14T21:09:27.481Z,40.30
2018-09-14T21:13:30.886Z,74.43
2018-09-14T21:17:34.583Z,87.13
2018-09-14T21:21:38.037Z,33.00
2018-09-14T21:25:41.389Z,50.50
2018-09-14T21:29:44.940Z,64.43
2018-09-14T21:33:48.288Z,124.40
2018-09-14T21:37:51.688Z,78.50
2018-09-14T21:41:55.085Z,418.30
2018-09-14T21:45:58.443Z,87.67
2018-09-14T21:50:01.799Z,45.33
2018-09-14T21:54:05.215Z,43.10
2018-09-14T21:58:08.529Z,20.57
2018-09-14T22:02:11.897Z,30.27
2018-09-14T22:06:15.268Z,18.30
2018-09-14T22:10:18.624Z,21.60
2018-09-14T22:14:22.098Z,28.70
2018-09-14T22:18:25.442Z,17.37
2018-09-14T22:22:29.364Z,19.73
2018-09-14T22:26:32.948Z,17.67
2018-09-14T22:30:36.495Z,20.03
2018-09-14T22:34:40.066Z,15.77
2018-09-14T22:38:43.640Z,17.50
2018-09-14T22:42:46.985Z,12.13
2018-09-14T22:46:50.490Z,11.30
2018-09-14T22:50:54.167Z,11.37
2018-09-14T22:54:57.730Z,12.87
2018-09-14T22:59:01.264Z,14.43
2018-09-14T23:03:04.869Z,9.23
2018-09-14T23:07:08.353Z,14.90
2018-09-14T23:11:11.977Z,10.17
2018-09-14T23:15:15.685Z,18.13
2018-09-14T23:19:19.146Z,13.40
2018-09-14T23:23:22.844Z,12.77
2018-09-14T23:27:26.342Z,12.37
2018-09-14T23:31:29.894Z,14.10
2018-09-14T23:35:33.332Z,14.63
2018-09-14T23:39:36.776Z,15.27
2018-09-14T23:43:40.193Z,12.53
2018-09-14T23:47:43.575Z,12.47
2018-09-14T23:51:46.988Z,10.60
2018-09-14T23:55:50.323Z,8.57
2018-09-14T23:59:53.898Z,9.43
